Time;durP1;ratioP1;P1;durP2;ratioP2;P2;SDS_P1;SDS_P2;PMS_P1;PMS_P2;Temp;Humidity;BMP_temperature;BMP_pressure;BME280_temperature;BME280_humidity;BME280_pressure;Samples;Min_cycle;Max_cycle;Signal;HPM_P1;HPM_P2
2021/11/16 00:06:34;;;;;;;21.60;16.83;;;;;;;4.21;100.00;101963.66;20970928;28;20261;-55
2021/11/16 00:16:39;;;;;;;19.93;16.47;;;;;;;4.44;100.00;101964.25;20971324;28;20231;-56
2021/11/16 00:26:43;;;;;;;27.13;20.00;;;;;;;4.57;100.00;101939.41;20970068;28;20682;-53
2021/11/16 00:36:48;;;;;;;21.97;18.17;;;;;;;4.69;100.00;101933.06;20969468;28;20218;-57
2021/11/16 00:46:51;;;;;;;25.33;19.17;;;;;;;4.74;100.00;101930.34;20916632;28;20673;-55
2021/11/16 00:56:54;;;;;;;22.07;18.30;;;;;;;4.77;100.00;101914.44;20913390;28;20722;-58
2021/11/16 01:06:58;;;;;;;20.60;17.07;;;;;;;4.85;100.00;101920.47;20912993;28;20285;-54
2021/11/16 01:17:01;;;;;;;25.03;19.53;;;;;;;4.98;100.00;101914.09;20911707;28;20314;-55
2021/11/16 01:27:07;;;;;;;23.67;19.50;;;;;;;5.07;100.00;101896.28;20828849;28;20244;-54
2021/11/16 01:37:10;;;;;;;24.17;19.10;;;;;;;5.20;100.00;101889.03;20828358;28;20765;-53
2021/11/16 01:47:14;;;;;;;25.97;20.27;;;;;;;5.27;100.00;101853.63;20827141;28;20239;-53
2021/11/16 01:57:17;;;;;;;23.57;19.20;;;;;;;5.26;100.00;101836.00;20825393;28;20235;-53
2021/11/16 02:07:20;;;;;;;22.57;18.90;;;;;;;5.32;100.00;101838.53;20824497;28;20259;-54
2021/11/16 02:17:24;;;;;;;26.70;19.37;;;;;;;5.32;100.00;101817.34;20824948;28;20319;-53
2021/11/16 02:27:27;;;;;;;23.03;19.03;;;;;;;5.31;100.00;101828.84;20809166;28;20791;-54
2021/11/16 02:37:32;;;;;;;22.17;18.73;;;;;;;5.30;100.00;101816.53;20819853;28;20311;-54
2021/11/16 02:47:36;;;;;;;23.53;19.50;;;;;;;5.33;100.00;101808.50;20822551;28;20239;-54
2021/11/16 02:57:40;;;;;;;22.87;19.03;;;;;;;5.36;100.00;101795.22;20822065;28;20239;-55
2021/11/16 03:07:46;;;;;;;25.10;19.53;;;;;;;5.38;100.00;101798.72;20835689;28;20247;-53
2021/11/16 03:17:51;;;;;;;24.70;19.80;;;;;;;5.40;100.00;101791.63;20835126;28;20224;-53
2021/11/16 03:27:57;;;;;;;23.90;19.20;;;;;;;5.44;100.00;101782.69;20820174;28;20248;-56
2021/11/16 03:38:00;;;;;;;23.97;19.30;;;;;;;5.51;100.00;101783.47;20820181;28;20238;-55
2021/11/16 03:48:05;;;;;;;107.43;79.30;;;;;;;5.50;100.00;101780.84;20819234;28;20250;-56
2021/11/16 03:58:10;;;;;;;42.97;32.97;;;;;;;5.53;100.00;101775.50;20819063;28;20315;-53
2021/11/16 04:08:14;;;;;;;29.40;23.93;;;;;;;5.57;100.00;101783.31;20818476;28;20240;-54
2021/11/16 04:18:18;;;;;;;41.50;26.17;;;;;;;5.57;100.00;101771.84;20826433;28;20705;-58
2021/11/16 04:28:22;;;;;;;39.27;27.67;;;;;;;5.60;100.00;101762.09;20833180;28;20327;-54
2021/11/16 04:38:26;;;;;;;33.17;23.70;;;;;;;5.63;100.00;101771.75;20832581;28;20233;-54
2021/11/16 04:48:48;;;;;;;25.33;20.37;;;;;;;5.64;100.00;101763.78;20903513;28;20250;-53
2021/11/16 05:09:26;;;;;;;41.93;25.97;;;;;;;5.67;100.00;101771.66;20576189;28;20329;-55
2021/11/16 05:19:30;;;;;;;27.97;21.97;;;;;;;5.70;100.00;101773.34;20559740;28;20237;-53
2021/11/16 05:29:33;;;;;;;42.43;27.77;;;;;;;5.72;100.00;101768.91;20635640;28;20245;-55
2021/11/16 05:39:37;;;;;;;32.90;21.83;;;;;;;5.80;100.00;101780.19;20778085;28;20249;-54
2021/11/16 05:49:41;;;;;;;28.77;21.73;;;;;;;5.81;100.00;101784.59;20827022;28;20311;-54
2021/11/16 05:59:44;;;;;;;27.43;22.07;;;;;;;5.87;100.00;101795.06;20826495;28;20232;-54
2021/11/16 06:09:47;;;;;;;54.37;29.80;;;;;;;5.93;100.00;101797.63;20825918;28;20326;-55
2021/11/16 06:19:51;;;;;;;32.13;22.90;;;;;;;5.92;100.00;101782.63;20821567;28;20233;-54
2021/11/16 06:29:54;;;;;;;71.30;37.43;;;;;;;6.00;100.00;101799.25;20877289;28;20679;-64
2021/11/16 06:39:57;;;;;;;41.80;29.37;;;;;;;6.06;100.00;101807.03;20904913;28;20224;-61
2021/11/16 06:50:01;;;;;;;30.07;22.87;;;;;;;6.14;100.00;101807.75;20904705;28;20250;-62
2021/11/16 07:00:09;;;;;;;36.73;26.03;;;;;;;6.13;100.00;101795.41;20821614;28;20265;-56
2021/11/16 07:10:16;;;;;;;34.33;23.90;;;;;;;6.27;100.00;101791.59;20895461;28;20620;-53
2021/11/16 07:20:20;;;;;;;31.40;24.23;;;;;;;6.36;100.00;101780.75;20903080;28;20251;-54
2021/11/16 07:30:26;;;;;;;29.30;22.03;;;;;;;6.51;100.00;101769.78;20902186;28;20223;-53
2021/11/16 07:40:30;;;;;;;29.50;23.27;;;;;;;6.56;100.00;101746.66;20901955;28;20225;-53
2021/11/16 07:50:33;;;;;;;32.73;24.60;;;;;;;6.67;100.00;101755.22;20905837;28;20341;-53
2021/11/16 08:00:39;;;;;;;29.73;23.63;;;;;;;6.74;100.00;101750.66;20917959;28;20239;-53
2021/11/16 08:10:46;;;;;;;36.67;25.07;;;;;;;6.82;100.00;101738.91;20917008;28;20232;-55
2021/11/16 08:20:59;;;;;;;31.93;23.77;;;;;;;6.84;100.00;101741.53;20916666;28;20248;-65
2021/11/16 08:31:03;;;;;;;32.43;23.63;;;;;;;6.98;100.00;101733.22;20832716;28;20237;-61
2021/11/16 08:41:07;;;;;;;31.60;24.37;;;;;;;7.07;100.00;101717.91;20832475;28;20238;-62
2021/11/16 08:51:17;;;;;;;36.47;25.50;;;;;;;7.27;100.00;101706.72;20873797;28;20241;-61
2021/11/16 09:01:22;;;;;;;43.23;28.07;;;;;;;7.39;100.00;101698.41;20913115;28;20683;-62
2021/11/16 09:11:26;;;;;;;30.60;23.63;;;;;;;7.51;100.00;101684.75;20911543;28;20823;-63
2021/11/16 09:21:41;;;;;;;40.13;28.03;;;;;;;7.48;100.00;101681.34;20911935;28;20325;-60
2021/11/16 09:31:59;;;;;;;32.40;24.73;;;;;;;7.40;100.00;101684.19;20909856;28;20220;-64
2021/11/16 09:42:06;;;;;;;26.13;20.53;;;;;;;7.52;100.00;101681.19;20910256;28;20608;-64
2021/11/16 09:52:34;;;;;;;25.67;20.80;;;;;;;7.72;100.00;101674.41;20909545;28;20237;-54
2021/11/16 10:02:48;;;;;;;30.87;23.37;;;;;;;7.57;100.00;101670.44;20908742;28;20234;-53
2021/11/16 10:12:53;;;;;;;29.23;22.87;;;;;;;7.51;100.00;101666.16;20907071;28;20711;-54
2021/11/16 10:23:00;;;;;;;29.93;23.87;;;;;;;7.45;100.00;101658.41;20907176;28;20233;-53
2021/11/16 10:33:10;;;;;;;29.17;23.70;;;;;;;7.50;100.00;101653.78;20905657;28;20329;-58
2021/11/16 10:43:14;;;;;;;28.27;22.63;;;;;;;7.66;100.00;101642.72;20904552;28;20241;-53
2021/11/16 10:53:26;;;;;;;27.07;21.70;;;;;;;7.84;100.00;101636.84;20904746;28;20329;-55
2021/11/16 11:03:38;;;;;;;27.70;22.30;;;;;;;8.14;100.00;101635.81;20904414;28;20255;-63
2021/11/16 11:13:44;;;;;;;26.53;23.00;;;;;;;8.33;100.00;101625.47;20903442;28;20241;-63
2021/11/16 11:23:49;;;;;;;28.03;22.43;;;;;;;8.51;100.00;101613.31;20901668;28;20835;-64
2021/11/16 11:33:53;;;;;;;37.90;29.23;;;;;;;8.58;100.00;101593.53;20901367;28;20232;-65
2021/11/16 11:44:17;;;;;;;26.43;22.63;;;;;;;8.73;100.00;101576.16;20902013;28;20229;-63
2021/11/16 11:54:21;;;;;;;28.60;24.00;;;;;;;8.75;100.00;101574.31;20895688;28;20261;-63
2021/11/16 12:04:24;;;;;;;28.80;22.97;;;;;;;8.65;100.00;101574.66;20901800;28;20256;-62
2021/11/16 12:14:41;;;;;;;32.87;24.77;;;;;;;8.58;100.00;101554.50;20901184;28;20216;-53
2021/11/16 12:24:47;;;;;;;31.90;25.10;;;;;;;8.47;100.00;101537.19;20899657;28;20717;-54
2021/11/16 12:35:05;;;;;;;29.50;22.70;;;;;;;8.52;100.00;101540.56;20901192;28;20228;-55
2021/11/16 12:45:10;;;;;;;30.70;23.87;;;;;;;8.56;100.00;101539.53;20914407;28;20226;-53
2021/11/16 12:55:19;;;;;;;29.97;24.33;;;;;;;8.41;100.00;101516.16;20914075;28;20310;-53
2021/11/16 13:05:30;;;;;;;29.27;21.40;;;;;;;8.46;100.00;101519.50;20913379;28;20669;-54
2021/11/16 13:15:33;;;;;;;29.37;23.20;;;;;;;8.55;100.00;101506.75;20911208;28;20651;-54
2021/11/16 13:25:51;;;;;;;32.20;24.47;;;;;;;8.45;100.00;101486.69;20911613;28;20666;-55
2021/11/16 13:36:06;;;;;;;28.80;22.67;;;;;;;8.45;100.00;101480.53;20910585;28;20666;-54
2021/11/16 13:46:16;;;;;;;29.17;21.07;;;;;;;8.41;100.00;101469.13;20902567;28;20257;-62
2021/11/16 13:56:19;;;;;;;24.80;19.07;;;;;;;8.30;100.00;101480.13;20909096;28;20235;-60
2021/11/16 14:06:23;;;;;;;26.20;19.57;;;;;;;8.17;100.00;101485.94;20908547;28;20584;-63
2021/11/16 14:16:30;;;;;;;26.20;19.10;;;;;;;8.02;100.00;101481.16;20907885;28;20321;-62
2021/11/16 14:26:34;;;;;;;26.20;21.13;;;;;;;7.83;100.00;101481.81;20906825;28;20665;-63
2021/11/16 14:36:48;;;;;;;23.70;18.53;;;;;;;7.67;100.00;101474.41;20906103;28;20226;-62
2021/11/16 14:46:59;;;;;;;24.30;18.47;;;;;;;7.53;100.00;101473.09;20905614;28;20749;-64
2021/11/16 14:57:03;;;;;;;26.73;19.53;;;;;;;7.47;100.00;101464.47;20821827;28;20478;-64
2021/11/16 15:07:12;;;;;;;25.17;19.50;;;;;;;7.43;100.00;101455.72;20895666;28;20700;-59
2021/11/16 15:17:16;;;;;;;28.17;21.30;;;;;;;7.36;100.00;101448.88;20902675;28;20261;-53
2021/11/16 15:27:24;;;;;;;27.33;20.60;;;;;;;7.30;100.00;101438.44;20902546;28;20242;-56
2021/11/16 15:37:29;;;;;;;28.97;21.43;;;;;;;7.23;100.00;101442.25;20902710;28;20322;-60
2021/11/16 15:47:43;;;;;;;29.77;21.93;;;;;;;7.17;100.00;101431.81;20902096;28;20312;-58
2021/11/16 15:57:47;;;;;;;31.60;23.60;;;;;;;7.10;100.00;101424.97;20901480;28;20231;-56
2021/11/16 16:08:10;;;;;;;31.10;22.83;;;;;;;7.08;100.00;101432.97;20898198;28;20656;-57
2021/11/16 16:18:14;;;;;;;32.83;22.67;;;;;;;7.06;100.00;101433.94;20897240;28;20681;-58
2021/11/16 16:28:18;;;;;;;30.33;23.03;;;;;;;7.02;100.00;101419.88;20914750;28;20229;-66
2021/11/16 16:38:23;;;;;;;32.83;23.97;;;;;;;7.01;100.00;101419.94;20914576;28;20257;-64
2021/11/16 16:48:26;;;;;;;38.10;25.67;;;;;;;7.02;100.00;101408.41;20914357;28;20225;-62
2021/11/16 16:58:29;;;;;;;37.77;26.77;;;;;;;6.98;100.00;101399.69;20913916;28;20236;-59
2021/11/16 17:08:33;;;;;;;36.37;25.67;;;;;;;6.93;100.00;101398.97;20911921;28;20237;-57
2021/11/16 17:18:44;;;;;;;31.73;23.07;;;;;;;6.88;100.00;101385.81;20912050;28;20649;-62
2021/11/16 17:28:48;;;;;;;32.87;23.13;;;;;;;6.84;100.00;101365.66;20910987;28;20618;-61
2021/11/16 17:38:52;;;;;;;34.57;25.63;;;;;;;6.72;100.00;101354.56;20910855;28;20251;-54
2021/11/16 17:48:56;;;;;;;33.37;23.37;;;;;;;6.62;100.00;101347.81;20910267;28;20430;-56
2021/11/16 17:58:59;;;;;;;32.07;23.53;;;;;;;6.54;100.00;101336.56;20909363;28;20679;-54
2021/11/16 18:09:04;;;;;;;28.83;23.00;;;;;;;6.49;100.00;101331.41;20908370;28;20649;-56
2021/11/16 18:19:08;;;;;;;29.93;21.60;;;;;;;5.93;100.00;101312.78;20907553;28;20303;-54
2021/11/16 18:29:12;;;;;;;28.53;20.23;;;;;;;4.99;100.00;101310.06;20906726;28;20605;-54
2021/11/16 18:39:24;;;;;;;28.97;19.40;;;;;;;4.03;100.00;101269.19;20905947;28;20593;-53
2021/11/16 18:59:30;;;;;;;61.17;36.33;;;;;;;3.47;100.00;101316.13;20979276;27;20620;-61
2021/11/16 19:09:33;;;;;;;53.00;32.53;;;;;;;3.25;100.00;101306.00;20973602;28;20227;-63
2021/11/16 19:19:42;;;;;;;49.93;30.07;;;;;;;3.06;100.00;101298.41;20971242;28;20265;-62
2021/11/16 19:29:51;;;;;;;80.77;41.47;;;;;;;3.02;100.00;101300.22;20962994;28;20241;-65
2021/11/16 19:40:03;;;;;;;81.77;44.93;;;;;;;2.88;100.00;101294.34;20888570;28;20226;-58
2021/11/16 19:50:11;;;;;;;71.60;41.97;;;;;;;2.81;100.00;101297.97;20887120;28;20279;-57
2021/11/16 20:00:17;;;;;;;64.63;37.70;;;;;;;2.70;100.00;101294.66;20846957;28;20241;-61
2021/11/16 20:10:22;;;;;;;63.40;37.27;;;;;;;2.58;100.00;101282.53;20808494;28;20740;-65
2021/11/16 20:20:27;;;;;;;55.20;33.50;;;;;;;2.43;100.00;101283.66;20788581;28;20234;-63
2021/11/16 20:30:39;;;;;;;60.23;34.83;;;;;;;2.29;100.00;101283.00;20809212;28;20275;-66
2021/11/16 20:40:49;;;;;;;69.67;37.43;;;;;;;2.11;100.00;101267.47;20819785;28;20307;-63
2021/11/16 22:40:35;;;;;;;106.13;41.03;;;;;;;2.17;100.00;101220.00;21149566;27;20574;-59
